aviador You're here:

VNKT Decoded Metar

KATHMANDU in NEPAL
Report Time2016-08-25 12:50:00
UTC Time2016-08-25 13:08:38
Flight Rules vfr VFR
Wind270° at 06 kt
W.Decomp.*RWY 20: 2.1 kt HW 5.6 kt RCW
W.Rank270° ranks 3
Current wind is below 270° avg. (6.0)
Visibility8000 m
Phenomena:N/A
Clouds:Few 020 Hf
Few TCU 025 Hf
Expected CloudBase > 2,400 ft AGL from Temp-Dew spread
CeilingNone
Temp27°C (ISA +21)
Dew Point21°C (70% RH)
Heat Index28.9°C
QNH1012 hPa
Density Alt7,133 ft
Elevation4,386 ft
Report Wrong Elevation
Raw Report
METAR VNKT 251250Z 27006KT 240V310 8000 FEW020 FEW025TCU 27/21 Q1012
NOSIG=

Extra information for VNKT:More info

Metar Taf Metar & Taf Last 4 Metars F.Rules Stats Wind Profile Meteogram Temp Stats Airport Information Weather charts Add Link Nearby VenuesMetar ALERT Operation Metar Decoded Social comments